createdAt,value
2019-04-22T00:00:46.573Z,10.45
2019-04-22T00:03:18.996Z,10.18
2019-04-22T00:06:15.902Z,9.88
2019-04-22T00:08:50.642Z,11.15
2019-04-22T00:11:27.203Z,10.68
2019-04-22T00:13:57.132Z,10.75
2019-04-22T00:16:34.396Z,10.77
2019-04-22T00:19:57.690Z,10.48
2019-04-22T00:21:41.924Z,10.30
2019-04-22T00:24:05.638Z,10.82
2019-04-22T00:26:45.866Z,10.90
2019-04-22T00:29:39.269Z,11.20
2019-04-22T00:31:58.983Z,10.60
2019-04-22T00:34:40.864Z,10.90
2019-04-22T00:37:17.519Z,11.70
2019-04-22T00:39:46.338Z,11.45
2019-04-22T00:42:22.644Z,10.87
2019-04-22T00:44:52.553Z,10.95
2019-04-22T00:47:29.123Z,11.40
2019-04-22T00:52:28.065Z,11.90
2019-04-22T00:55:09.616Z,10.73
2019-04-22T00:57:32.462Z,12.00
2019-04-22T01:00:11.587Z,11.57
2019-04-22T01:02:42.542Z,11.70
2019-04-22T01:07:49.888Z,11.55
2019-04-22T01:10:25.856Z,12.00
2019-04-22T01:12:54.644Z,12.30
2019-04-22T01:15:31.896Z,12.68
2019-04-22T01:17:58.560Z,12.10
2019-04-22T01:23:03.833Z,11.63
2019-04-22T01:25:31.262Z,11.65
2019-04-22T01:28:00.900Z,12.50
2019-04-22T01:30:28.765Z,11.83
2019-04-22T01:33:03.592Z,10.85
2019-04-22T01:35:38.617Z,11.68
2019-04-22T01:38:13.664Z,12.35
2019-04-22T01:41:02.761Z,12.53
2019-04-22T01:43:35.039Z,11.83
2019-04-22T01:46:07.987Z,12.55
2019-04-22T01:48:39.335Z,11.57
2019-04-22T01:51:04.782Z,11.48
2019-04-22T01:53:43.045Z,11.75
2019-04-22T01:56:20.495Z,11.68
2019-04-22T01:58:44.084Z,11.12
2019-04-22T02:01:22.139Z,11.43
2019-04-22T02:04:02.775Z,11.95
2019-04-22T02:06:35.219Z,11.60
2019-04-22T02:09:09.481Z,11.70
2019-04-22T02:11:39.047Z,12.93
2019-04-22T02:14:11.714Z,12.88
2019-04-22T02:16:43.207Z,11.78
2019-04-22T02:19:20.770Z,13.10
2019-04-22T02:21:48.592Z,12.57
2019-04-22T02:24:27.809Z,13.00
2019-04-22T02:26:54.598Z,12.53
2019-04-22T02:29:32.610Z,12.68
2019-04-22T02:32:15.342Z,12.50
2019-04-22T02:34:40.346Z,13.00
2019-04-22T02:37:17.063Z,13.48
2019-04-22T02:39:45.355Z,13.32
2019-04-22T02:42:23.451Z,13.67
2019-04-22T02:44:58.086Z,13.18
2019-04-22T02:47:20.637Z,13.85
2019-04-22T02:50:02.441Z,13.83
2019-04-22T02:52:31.141Z,14.05
2019-04-22T03:00:18.389Z,15.68
2019-04-22T03:02:50.859Z,16.00
2019-04-22T03:05:17.758Z,15.77
2019-04-22T03:10:29.890Z,15.20
2019-04-22T03:12:53.957Z,15.73
2019-04-22T03:15:29.956Z,17.07
2019-04-22T03:18:10.007Z,16.52
2019-04-22T03:20:39.476Z,16.55
2019-04-22T03:28:24.103Z,15.45
2019-04-22T03:33:55.257Z,16.82
2019-04-22T03:36:05.972Z,16.80
2019-04-22T03:39:01.433Z,16.70
2019-04-22T03:41:13.338Z,16.67
2019-04-22T03:44:01.039Z,16.25
2019-04-22T03:46:16.664Z,16.55
2019-04-22T03:48:45.370Z,17.00
2019-04-22T03:51:33.893Z,16.57
2019-04-22T03:54:07.683Z,16.25
2019-04-22T03:56:57.326Z,16.75
2019-04-22T03:59:12.078Z,15.80
2019-04-22T04:01:46.399Z,15.48
2019-04-22T04:06:52.562Z,15.10
2019-04-22T04:09:19.312Z,15.18
2019-04-22T04:16:56.384Z,17.42
2019-04-22T04:21:58.018Z,15.70
2019-04-22T04:24:53.633Z,14.78
2019-04-22T04:27:18.294Z,13.43
2019-04-22T04:29:51.490Z,13.13
2019-04-22T04:37:32.810Z,18.10
2019-04-22T04:39:53.395Z,15.38
2019-04-22T04:50:07.462Z,12.43
2019-04-22T04:55:18.526Z,13.65
2019-04-22T05:02:55.625Z,11.70
2019-04-22T05:05:16.715Z,10.60
2019-04-22T05:07:52.085Z,10.63
2019-04-22T05:10:34.858Z,11.18
2019-04-22T05:12:56.778Z,11.12
2019-04-22T05:15:40.057Z,13.65
2019-04-22T05:20:42.241Z,43.67
2019-04-22T05:23:06.948Z,16.60
2019-04-22T05:25:32.048Z,50.20
2019-04-22T05:28:11.870Z,33.00
2019-04-22T05:30:47.572Z,27.80
2019-04-22T05:33:18.308Z,21.20
2019-04-22T05:35:53.597Z,17.95
2019-04-22T05:38:27.172Z,11.90
2019-04-22T05:40:56.502Z,10.95
2019-04-22T05:43:27.241Z,9.83
2019-04-22T05:46:04.208Z,10.10
2019-04-22T05:48:38.392Z,17.73
2019-04-22T05:51:09.775Z,11.40
2019-04-22T05:53:40.569Z,6.90
2019-04-22T05:56:20.743Z,5.50
2019-04-22T05:58:51.468Z,7.33
2019-04-22T06:03:59.020Z,7.90
2019-04-22T06:06:22.513Z,6.63
2019-04-22T06:09:14.736Z,6.15
2019-04-22T06:11:29.416Z,5.67
2019-04-22T06:14:20.460Z,6.90
2019-04-22T06:16:44.388Z,9.73
2019-04-22T06:19:16.762Z,8.73
2019-04-22T06:22:06.890Z,8.45
2019-04-22T06:24:23.611Z,11.30
2019-04-22T06:27:01.646Z,11.95
2019-04-22T06:29:28.481Z,11.18
2019-04-22T06:32:23.323Z,9.45
2019-04-22T06:34:35.879Z,9.10
2019-04-22T06:37:16.070Z,11.45
2019-04-22T06:39:38.263Z,9.68
2019-04-22T06:42:13.732Z,8.43
2019-04-22T06:44:56.396Z,8.65
2019-04-22T06:47:38.322Z,7.72
2019-04-22T06:49:57.325Z,8.25
2019-04-22T06:52:22.893Z,8.20
2019-04-22T06:55:03.946Z,8.40
2019-04-22T06:57:36.386Z,9.40
2019-04-22T07:00:12.213Z,9.05
2019-04-22T07:02:56.388Z,8.08
2019-04-22T07:05:14.367Z,6.87
2019-04-22T07:07:51.904Z,6.92
2019-04-22T07:10:28.669Z,6.83
2019-04-22T07:12:53.900Z,7.30
2019-04-22T07:15:44.103Z,8.28
2019-04-22T07:18:06.188Z,9.00
2019-04-22T07:20:41.639Z,9.08
2019-04-22T07:23:15.471Z,9.13
2019-04-22T07:25:41.322Z,9.03
2019-04-22T07:28:15.675Z,11.30
2019-04-22T07:30:50.747Z,13.20
2019-04-22T07:36:06.466Z,12.00
2019-04-22T07:38:26.349Z,11.18
2019-04-22T07:41:00.569Z,9.90
2019-04-22T07:43:54.192Z,9.60
2019-04-22T07:46:28.299Z,8.13
2019-04-22T07:48:45.319Z,7.10
2019-04-22T07:51:15.474Z,7.05
2019-04-22T07:53:49.062Z,7.58
2019-04-22T07:56:24.731Z,6.97
2019-04-22T07:58:58.275Z,6.67
2019-04-22T08:04:11.510Z,6.97
2019-04-22T08:06:38.252Z,6.33
2019-04-22T08:09:14.165Z,6.40
2019-04-22T08:14:14.648Z,6.80
2019-04-22T08:16:51.840Z,6.97
2019-04-22T08:19:20.528Z,6.60
2019-04-22T08:21:57.021Z,7.10
2019-04-22T08:24:29.292Z,6.47
2019-04-22T08:26:58.165Z,6.55
2019-04-22T08:32:07.704Z,6.45
2019-04-22T08:34:37.051Z,6.65
2019-04-22T08:39:58.294Z,6.87
2019-04-22T08:42:35.397Z,6.30
2019-04-22T08:50:12.023Z,6.47
2019-04-22T08:52:41.579Z,6.47
2019-04-22T08:55:12.706Z,6.53
2019-04-22T08:58:03.299Z,6.15
2019-04-22T09:00:16.181Z,6.33
2019-04-22T09:02:53.923Z,6.80
2019-04-22T09:05:36.792Z,6.53
2019-04-22T09:08:01.460Z,6.45
2019-04-22T09:10:30.077Z,6.65
2019-04-22T09:15:37.346Z,7.05
2019-04-22T09:18:14.800Z,6.63
2019-04-22T09:20:49.299Z,6.35
2019-04-22T09:23:28.404Z,7.00
2019-04-22T09:25:48.776Z,6.70
2019-04-22T09:28:22.748Z,6.92
2019-04-22T09:31:01.807Z,6.75
2019-04-22T09:33:32.202Z,7.28
2019-04-22T09:41:13.954Z,6.53
2019-04-22T09:46:22.770Z,6.60
2019-04-22T09:51:27.269Z,7.00
2019-04-22T09:54:05.804Z,6.53
2019-04-22T09:56:37.376Z,6.70
2019-04-22T09:59:05.869Z,6.90
2019-04-22T10:02:09.951Z,7.40
2019-04-22T10:04:10.010Z,6.45
2019-04-22T10:06:41.161Z,6.33
2019-04-22T10:11:51.084Z,6.20
2019-04-22T10:14:28.473Z,6.50
2019-04-22T10:16:53.829Z,6.33
2019-04-22T10:19:29.760Z,6.05
2019-04-22T10:22:04.617Z,6.20
2019-04-22T10:24:38.788Z,6.00
2019-04-22T10:27:12.954Z,6.50
2019-04-22T10:29:54.060Z,5.80
2019-04-22T10:32:19.930Z,5.72
2019-04-22T10:34:38.751Z,5.58
2019-04-22T10:37:11.011Z,5.80
2019-04-22T10:39:46.126Z,5.78
2019-04-22T10:42:13.195Z,5.62
2019-04-22T10:44:46.152Z,5.53
2019-04-22T10:47:18.143Z,5.30
2019-04-22T10:49:52.272Z,5.35
2019-04-22T10:52:23.710Z,5.83
2019-04-22T10:54:55.794Z,5.35
2019-04-22T10:57:29.848Z,5.95
2019-04-22T11:00:02.597Z,5.53
2019-04-22T11:02:35.143Z,6.20
2019-04-22T11:05:08.226Z,6.37
2019-04-22T11:07:45.492Z,6.25
2019-04-22T11:10:27.370Z,6.00
2019-04-22T11:12:47.385Z,6.65
2019-04-22T11:15:19.118Z,6.28
2019-04-22T11:17:53.565Z,6.40
2019-04-22T11:20:25.940Z,6.30
2019-04-22T11:22:58.553Z,5.85
2019-04-22T11:25:30.630Z,6.15
2019-04-22T11:28:03.139Z,6.37
2019-04-22T11:30:34.510Z,6.40
2019-04-22T11:33:06.827Z,6.70
2019-04-22T11:35:39.481Z,6.40
2019-04-22T11:38:10.978Z,6.20
2019-04-22T11:40:49.604Z,6.80
2019-04-22T11:43:16.419Z,6.40
2019-04-22T11:45:49.213Z,6.17
2019-04-22T11:48:21.443Z,6.53
2019-04-22T11:50:53.719Z,6.20
2019-04-22T11:53:26.907Z,6.17
2019-04-22T11:55:58.492Z,6.85
2019-04-22T11:58:30.769Z,6.67
2019-04-22T12:01:03.049Z,6.47
2019-04-22T12:03:35.792Z,6.65
2019-04-22T12:06:08.389Z,6.20
2019-04-22T12:08:41.529Z,6.62
2019-04-22T12:11:13.695Z,6.75
2019-04-22T12:13:46.166Z,6.25
2019-04-22T12:16:19.207Z,6.62
2019-04-22T12:18:51.350Z,6.30
2019-04-22T12:21:23.354Z,6.47
2019-04-22T12:23:55.068Z,6.03
2019-04-22T12:26:28.593Z,6.33
2019-04-22T12:29:00.024Z,6.20
2019-04-22T12:31:31.606Z,6.20
2019-04-22T12:34:03.683Z,6.00
2019-04-22T12:36:36.246Z,6.50
2019-04-22T12:39:09.886Z,6.47
2019-04-22T12:41:42.428Z,6.33
2019-04-22T12:44:15.055Z,6.55
2019-04-22T12:46:48.049Z,6.60
2019-04-22T12:49:20.437Z,6.60
2019-04-22T12:51:51.572Z,6.45
2019-04-22T12:54:22.723Z,6.12
2019-04-22T12:56:55.617Z,6.15
2019-04-22T12:59:27.977Z,6.28
2019-04-22T13:02:00.610Z,6.13
2019-04-22T13:04:32.313Z,6.50
2019-04-22T13:07:03.905Z,6.30
2019-04-22T13:09:36.963Z,6.08
2019-04-22T13:12:08.931Z,6.47
2019-04-22T13:14:41.035Z,6.10
2019-04-22T13:17:15.215Z,6.37
2019-04-22T13:19:45.284Z,6.50
2019-04-22T13:22:16.959Z,6.70
2019-04-22T13:24:52.071Z,7.12
2019-04-22T13:27:24.782Z,6.63
2019-04-22T13:29:57.137Z,6.60
2019-04-22T13:32:28.941Z,6.85
2019-04-22T13:35:02.140Z,6.85
2019-04-22T13:37:34.926Z,6.67
2019-04-22T13:40:07.451Z,7.17
2019-04-22T13:42:40.728Z,7.72
2019-04-22T13:45:13.824Z,7.15
2019-04-22T13:48:02.919Z,7.05
2019-04-22T13:50:49.883Z,6.92
2019-04-22T13:55:44.994Z,6.40
2019-04-22T13:58:11.908Z,6.33
2019-04-22T14:00:34.203Z,6.45
2019-04-22T14:03:24.621Z,6.53
2019-04-22T14:06:00.828Z,6.60
2019-04-22T14:08:33.189Z,6.85
2019-04-22T14:11:16.805Z,7.17
2019-04-22T14:13:38.079Z,6.62
2019-04-22T14:16:10.968Z,7.15
2019-04-22T14:18:44.588Z,6.83
2019-04-22T14:21:16.696Z,6.62
2019-04-22T14:23:48.705Z,6.72
2019-04-22T14:26:23.034Z,6.60
2019-04-22T14:28:55.953Z,7.35
2019-04-22T14:31:28.689Z,6.75
2019-04-22T14:34:04.954Z,6.87
2019-04-22T14:36:33.163Z,6.62
2019-04-22T14:39:08.178Z,6.90
2019-04-22T14:41:55.120Z,6.70
2019-04-22T14:49:42.099Z,6.62
2019-04-22T14:52:15.332Z,6.58
2019-04-22T14:54:37.680Z,6.90
2019-04-22T14:56:59.020Z,6.95
2019-04-22T14:59:30.952Z,7.00
2019-04-22T15:02:05.699Z,7.25
2019-04-22T15:04:37.460Z,6.95
2019-04-22T15:07:10.627Z,7.15
2019-04-22T15:09:42.043Z,6.90
2019-04-22T15:12:20.682Z,7.12
2019-04-22T15:14:47.923Z,6.90
2019-04-22T15:17:24.944Z,7.35
2019-04-22T15:20:03.916Z,7.87
2019-04-22T15:22:36.908Z,7.12
2019-04-22T15:25:08.457Z,7.15
2019-04-22T15:27:41.496Z,7.00
2019-04-22T15:30:15.084Z,7.55
2019-04-22T15:32:47.494Z,7.53
2019-04-22T15:35:19.494Z,7.12
2019-04-22T15:37:51.216Z,7.12
2019-04-22T15:40:22.665Z,7.37
2019-04-22T15:42:55.044Z,6.85
2019-04-22T15:46:57.310Z,7.20
2019-04-22T15:49:29.941Z,7.70
2019-04-22T15:52:03.908Z,7.17
2019-04-22T15:54:34.780Z,8.08
2019-04-22T15:57:06.694Z,8.15
2019-04-22T15:59:55.127Z,8.98
2019-04-22T16:02:12.088Z,8.78
2019-04-22T16:04:44.549Z,9.53
2019-04-22T16:07:17.050Z,9.67
2019-04-22T16:09:49.869Z,8.60
2019-04-22T16:12:28.724Z,8.23
2019-04-22T16:14:58.720Z,8.47
2019-04-22T16:17:28.844Z,8.35
2019-04-22T16:20:01.486Z,8.10
2019-04-22T16:22:34.425Z,8.38
2019-04-22T16:25:11.283Z,8.33
2019-04-22T16:27:42.821Z,8.93
2019-04-22T16:30:17.156Z,8.63
2019-04-22T16:32:49.473Z,8.63
2019-04-22T16:35:22.409Z,8.90
2019-04-22T16:37:54.959Z,8.68
2019-04-22T16:40:26.955Z,8.50
2019-04-22T16:43:02.000Z,8.98
2019-04-22T16:45:31.641Z,9.20
2019-04-22T16:48:04.172Z,9.50
2019-04-22T16:50:38.326Z,9.48
2019-04-22T16:53:10.117Z,9.43
2019-04-22T16:55:41.472Z,10.30
2019-04-22T16:58:14.644Z,10.20
2019-04-22T17:00:46.895Z,10.70
2019-04-22T17:03:29.099Z,10.90
2019-04-22T17:06:19.396Z,9.83
2019-04-22T17:08:51.091Z,9.68
2019-04-22T17:11:22.416Z,9.40
2019-04-22T17:13:55.082Z,9.25
2019-04-22T17:16:28.328Z,9.58
2019-04-22T17:19:00.549Z,9.40
2019-04-22T17:21:32.125Z,9.45
2019-04-22T17:24:03.779Z,8.63
2019-04-22T17:26:36.613Z,9.68
2019-04-22T17:29:08.441Z,9.40
2019-04-22T17:31:42.049Z,9.55
2019-04-22T17:34:13.843Z,9.88
2019-04-22T17:36:46.242Z,9.15
2019-04-22T17:39:31.572Z,9.55
2019-04-22T17:42:12.558Z,9.63
2019-04-22T17:44:48.403Z,10.40
2019-04-22T17:47:21.690Z,11.05
2019-04-22T17:49:59.954Z,11.05
2019-04-22T17:53:00.873Z,10.98
2019-04-22T17:55:04.586Z,11.10
2019-04-22T17:57:35.687Z,10.93
2019-04-22T18:00:13.132Z,11.60
2019-04-22T18:02:39.711Z,11.48
2019-04-22T18:05:03.821Z,11.93
2019-04-22T18:07:49.622Z,11.43
2019-04-22T18:13:07.404Z,13.62
2019-04-22T18:15:33.462Z,14.50
2019-04-22T18:18:06.415Z,16.97
2019-04-22T18:20:29.266Z,16.35
2019-04-22T18:22:59.561Z,16.48
2019-04-22T18:25:46.780Z,17.20
2019-04-22T18:28:17.670Z,14.45
2019-04-22T18:30:45.242Z,14.38
2019-04-22T18:33:24.337Z,14.28
2019-04-22T18:35:55.330Z,14.23
2019-04-22T18:38:42.334Z,14.65
2019-04-22T18:41:03.752Z,15.00
2019-04-22T18:43:35.309Z,15.55
2019-04-22T18:46:12.646Z,16.90
2019-04-22T18:48:37.670Z,17.17
2019-04-22T18:51:20.233Z,17.70
2019-04-22T18:53:54.047Z,18.10
2019-04-22T18:56:25.471Z,16.93
2019-04-22T18:58:53.639Z,17.48
2019-04-22T19:01:15.656Z,17.85
2019-04-22T19:03:55.164Z,18.43
2019-04-22T19:06:56.271Z,17.80
2019-04-22T19:09:16.716Z,18.37
2019-04-22T19:12:01.701Z,19.05
2019-04-22T19:14:33.539Z,19.60
2019-04-22T19:16:52.091Z,18.32
2019-04-22T19:19:43.640Z,18.45
2019-04-22T19:21:58.839Z,18.07
2019-04-22T19:24:29.109Z,17.77
2019-04-22T19:27:02.942Z,18.55
2019-04-22T19:29:39.841Z,17.85
2019-04-22T19:32:06.887Z,17.90
2019-04-22T19:34:42.763Z,18.73
2019-04-22T19:37:18.433Z,19.50
2019-04-22T19:40:01.556Z,19.10
2019-04-22T19:42:30.540Z,19.48
2019-04-22T19:44:55.086Z,20.30
2019-04-22T19:47:33.665Z,19.50
2019-04-22T19:52:56.686Z,19.50
2019-04-22T19:55:12.355Z,19.40
2019-04-22T19:57:41.942Z,19.98
2019-04-22T20:00:22.915Z,19.60
2019-04-22T20:03:20.662Z,19.70
2019-04-22T20:06:01.015Z,18.90
2019-04-22T20:08:32.705Z,18.82
2019-04-22T20:11:15.121Z,19.27
2019-04-22T20:13:44.357Z,19.05
2019-04-22T20:16:01.726Z,18.40
2019-04-22T20:18:51.933Z,17.92
2019-04-22T20:21:22.323Z,17.70
2019-04-22T20:23:44.540Z,17.33
2019-04-22T20:26:21.554Z,16.27
2019-04-22T20:28:59.015Z,15.90
2019-04-22T20:31:31.817Z,16.40
2019-04-22T20:34:12.934Z,17.32
2019-04-22T20:39:06.622Z,15.72
2019-04-22T20:41:36.722Z,16.50
2019-04-22T20:44:24.675Z,15.88
2019-04-22T20:46:48.916Z,16.12
2019-04-22T20:49:25.749Z,15.88
2019-04-22T20:54:32.650Z,16.70
2019-04-22T20:56:59.658Z,17.52
2019-04-22T20:59:33.537Z,16.07
2019-04-22T21:02:07.671Z,16.23
2019-04-22T21:04:35.606Z,16.23
2019-04-22T21:07:16.730Z,15.45
2019-04-22T21:09:52.333Z,15.45
2019-04-22T21:12:14.901Z,15.68
2019-04-22T21:15:03.680Z,15.20
2019-04-22T21:17:30.804Z,14.15
2019-04-22T21:20:06.948Z,13.15
2019-04-22T21:22:33.892Z,12.98
2019-04-22T21:25:01.974Z,14.33
2019-04-22T21:27:45.367Z,13.93
2019-04-22T21:30:12.389Z,14.55
2019-04-22T21:32:45.102Z,14.50
2019-04-22T21:35:31.363Z,13.98
2019-04-22T21:37:57.977Z,13.70
2019-04-22T21:40:32.286Z,14.10
2019-04-22T21:43:08.926Z,14.13
2019-04-22T21:45:23.846Z,13.50
2019-04-22T21:50:47.952Z,14.28
2019-04-22T21:53:14.585Z,14.65
2019-04-22T21:55:50.450Z,14.65
2019-04-22T21:58:27.620Z,14.87
2019-04-22T22:01:18.964Z,16.52
2019-04-22T22:03:55.781Z,16.77
2019-04-22T22:06:18.595Z,18.05
2019-04-22T22:09:05.829Z,18.20
2019-04-22T22:11:27.863Z,18.32
2019-04-22T22:14:04.638Z,18.92
2019-04-22T22:16:33.549Z,20.68
2019-04-22T22:19:11.543Z,20.17
2019-04-22T22:21:51.429Z,19.87
2019-04-22T22:24:35.920Z,21.40
2019-04-22T22:26:54.272Z,19.85
2019-04-22T22:29:36.866Z,20.73
2019-04-22T22:32:03.198Z,21.45
2019-04-22T22:34:28.185Z,20.97
2019-04-22T22:36:55.931Z,21.62
2019-04-22T22:39:28.126Z,21.73
2019-04-22T22:41:47.931Z,21.23
2019-04-22T22:44:29.486Z,25.80
2019-04-22T22:47:08.644Z,24.43
2019-04-22T22:49:50.357Z,27.15
2019-04-22T22:54:54.201Z,25.65
2019-04-22T22:57:29.261Z,28.83
2019-04-22T22:59:57.479Z,29.70
2019-04-22T23:02:28.653Z,29.12
2019-04-22T23:05:04.947Z,29.23
2019-04-22T23:07:44.214Z,28.55
2019-04-22T23:10:07.922Z,30.95
2019-04-22T23:13:05.047Z,30.45
2019-04-22T23:15:10.674Z,30.05
2019-04-22T23:17:30.510Z,29.65
2019-04-22T23:20:03.087Z,29.77
2019-04-22T23:22:50.997Z,28.97
2019-04-22T23:25:29.457Z,29.23
2019-04-22T23:28:13.404Z,29.40
2019-04-22T23:30:37.898Z,31.52
2019-04-22T23:33:35.852Z,30.90
2019-04-22T23:36:06.362Z,32.17
2019-04-22T23:38:47.632Z,30.85
2019-04-22T23:41:38.863Z,30.97
2019-04-22T23:44:13.779Z,33.88
2019-04-22T23:46:38.015Z,32.23
2019-04-22T23:49:15.568Z,33.33
2019-04-22T23:51:55.468Z,33.33
2019-04-22T23:54:23.991Z,34.67
2019-04-22T23:56:55.272Z,37.03
2019-04-22T23:59:44.569Z,36.17
